createdAt,value
2023-04-01T00:02:32.940Z,10.16
2023-04-01T00:07:36.028Z,9.97
2023-04-01T00:12:38.475Z,9.91
2023-04-01T00:17:40.835Z,9.82
2023-04-01T00:22:44.587Z,9.92
2023-04-01T00:27:47.316Z,10.00
2023-04-01T00:32:49.538Z,10.07
2023-04-01T00:37:52.862Z,10.14
2023-04-01T00:42:54.896Z,10.12
2023-04-01T00:47:57.355Z,10.13
2023-04-01T00:53:02.004Z,10.07
2023-04-01T00:58:06.840Z,10.03
2023-04-01T01:03:08.730Z,9.98
2023-04-01T01:08:20.217Z,9.92
2023-04-01T01:13:32.043Z,9.87
2023-04-01T01:18:38.247Z,10.03
2023-04-01T01:24:06.638Z,10.05
2023-04-01T01:29:20.413Z,10.17
2023-04-01T01:34:29.952Z,10.18
2023-04-01T01:39:36.724Z,10.20
2023-04-01T01:44:41.429Z,10.19
2023-04-01T01:49:45.749Z,10.22
2023-04-01T01:54:53.556Z,10.16
2023-04-01T02:00:01.587Z,10.17
2023-04-01T02:05:05.207Z,10.25
2023-04-01T02:10:10.262Z,10.10
2023-04-01T02:15:15.925Z,10.13
2023-04-01T02:20:21.974Z,10.11
2023-04-01T02:25:29.357Z,10.20
2023-04-01T02:30:34.559Z,10.26
2023-04-01T02:35:38.863Z,10.24
2023-04-01T02:40:50.146Z,10.23
2023-04-01T02:45:52.918Z,10.22
2023-04-01T02:50:55.701Z,10.19
2023-04-01T02:55:58.678Z,10.21
2023-04-01T03:01:00.957Z,10.20
2023-04-01T03:06:08.415Z,10.22
2023-04-01T03:11:13.097Z,10.22
2023-04-01T03:16:16.644Z,10.21
2023-04-01T03:21:21.498Z,10.18
2023-04-01T03:26:25.510Z,10.15
2023-04-01T03:31:28.965Z,10.14
2023-04-01T03:36:33.302Z,10.17
2023-04-01T03:41:39.160Z,10.11
2023-04-01T03:46:41.895Z,10.13
2023-04-01T03:51:46.470Z,10.11
2023-04-01T03:56:50.423Z,10.05
2023-04-01T04:01:53.335Z,10.13
2023-04-01T04:06:56.252Z,10.20
2023-04-01T04:12:00.960Z,10.19
2023-04-01T04:17:03.375Z,10.16
2023-04-01T04:22:05.605Z,10.23
2023-04-01T04:27:09.531Z,10.24
2023-04-01T04:32:21.014Z,10.16
2023-04-01T04:37:23.539Z,10.26
2023-04-01T04:42:27.796Z,10.26
2023-04-01T04:47:35.623Z,10.25
2023-04-01T04:52:37.689Z,10.26
2023-04-01T04:57:41.725Z,10.25
2023-04-01T05:02:44.480Z,10.24
2023-04-01T05:07:47.173Z,10.28
2023-04-01T05:12:51.430Z,10.24
2023-04-01T05:17:57.885Z,10.23
2023-04-01T05:23:01.561Z,10.34
2023-04-01T05:28:07.123Z,10.27
2023-04-01T05:33:09.702Z,10.25
2023-04-01T05:38:12.523Z,10.34
2023-04-01T05:43:16.631Z,10.39
2023-04-01T05:48:22.823Z,10.39
2023-04-01T05:53:25.582Z,10.28
2023-04-01T05:58:29.755Z,10.30
2023-04-01T06:03:32.768Z,10.29
2023-04-01T06:08:36.258Z,10.22
2023-04-01T06:13:55.865Z,10.11
2023-04-01T06:19:15.258Z,10.18
2023-04-01T06:24:46.223Z,10.27
2023-04-01T06:30:04.925Z,10.50
2023-04-01T06:35:23.929Z,10.70
2023-04-01T06:40:43.870Z,10.84
2023-04-01T06:45:56.864Z,10.92
2023-04-01T06:51:30.720Z,11.06
2023-04-01T06:57:01.709Z,11.02
2023-04-01T07:02:19.057Z,11.43
2023-04-01T07:07:26.907Z,11.41
2023-04-01T07:12:43.540Z,11.40
2023-04-01T07:18:10.166Z,11.33
2023-04-01T07:23:23.455Z,11.28
2023-04-01T07:28:49.423Z,11.38
2023-04-01T07:34:12.983Z,11.39
2023-04-01T07:39:29.527Z,11.37
2023-04-01T07:45:00.787Z,11.42
2023-04-01T07:50:16.913Z,11.45
2023-04-01T07:55:28.829Z,11.78
2023-04-01T08:00:42.203Z,11.53
2023-04-01T08:06:03.034Z,11.50
2023-04-01T08:11:15.729Z,11.56
2023-04-01T08:16:44.977Z,11.70
2023-04-01T08:22:00.255Z,12.01
2023-04-01T08:27:08.536Z,11.98
2023-04-01T08:32:18.605Z,11.98
2023-04-01T08:37:28.493Z,12.21
2023-04-01T08:42:57.666Z,12.23
2023-04-01T08:48:26.827Z,12.09
2023-04-01T08:53:49.146Z,11.90
2023-04-01T08:59:10.291Z,11.83
2023-04-01T09:04:34.420Z,12.05
2023-04-01T09:09:56.140Z,12.16
2023-04-01T09:15:16.103Z,12.40
2023-04-01T09:20:43.561Z,12.23
2023-04-01T09:25:56.811Z,12.35
2023-04-01T09:31:14.258Z,12.28
2023-04-01T09:36:46.616Z,12.55
2023-04-01T09:42:05.818Z,12.51
2023-04-01T09:47:29.623Z,12.57
2023-04-01T09:52:39.463Z,12.62
2023-04-01T09:58:29.419Z,12.70
2023-04-01T10:04:25.851Z,12.66
2023-04-01T10:10:12.891Z,12.54
2023-04-01T10:15:39.100Z,12.62
2023-04-01T10:21:16.044Z,12.62
2023-04-01T10:26:46.636Z,12.82
2023-04-01T10:32:57.395Z,12.72
2023-04-01T10:38:22.765Z,12.58
2023-04-01T10:43:59.562Z,12.51
2023-04-01T10:49:33.578Z,12.41
2023-04-01T10:54:50.159Z,12.39
2023-04-01T11:00:48.616Z,12.67
2023-04-01T11:06:35.730Z,12.59
2023-04-01T11:12:06.548Z,12.67
2023-04-01T11:17:30.202Z,12.98
2023-04-01T11:23:10.803Z,13.48
2023-04-01T11:28:46.910Z,13.71
2023-04-01T11:33:57.568Z,13.65
2023-04-01T11:39:15.016Z,13.90
2023-04-01T11:44:43.375Z,13.51
2023-04-01T11:49:58.972Z,12.98
2023-04-01T11:55:34.605Z,12.70
2023-04-01T12:01:00.337Z,12.44
2023-04-01T12:06:07.598Z,12.91
2023-04-01T12:11:19.814Z,13.16
2023-04-01T12:16:42.563Z,13.49
2023-04-01T12:21:52.752Z,13.69
2023-04-01T12:27:10.915Z,13.64
2023-04-01T12:32:21.786Z,13.29
2023-04-01T12:37:37.333Z,13.48
2023-04-01T12:42:55.095Z,13.06
2023-04-01T12:48:30.708Z,12.67
2023-04-01T12:53:47.030Z,12.87
2023-04-01T12:59:15.655Z,13.20
2023-04-01T13:04:52.874Z,13.62
2023-04-01T13:10:04.121Z,13.97
2023-04-01T13:15:29.254Z,14.31
2023-04-01T13:20:50.534Z,14.26
2023-04-01T13:26:13.524Z,14.02
2023-04-01T13:31:34.843Z,13.97
2023-04-01T13:36:48.106Z,14.01
2023-04-01T13:42:06.833Z,14.14
2023-04-01T13:47:36.767Z,14.19
2023-04-01T13:53:07.475Z,14.74
2023-04-01T13:58:29.154Z,15.04
2023-04-01T14:03:40.967Z,14.78
2023-04-01T14:08:58.229Z,14.21
2023-04-01T14:14:09.541Z,14.34
2023-04-01T14:19:27.176Z,13.94
2023-04-01T14:24:47.127Z,14.10
2023-04-01T14:30:00.289Z,14.02
2023-04-01T14:35:21.236Z,13.97
2023-04-01T14:40:30.648Z,13.86
2023-04-01T14:45:48.463Z,13.74
2023-04-01T14:50:54.463Z,13.79
2023-04-01T14:56:04.966Z,13.45
2023-04-01T15:01:18.193Z,13.21
2023-04-01T15:06:57.975Z,13.58
2023-04-01T15:12:13.939Z,14.00
2023-04-01T15:17:53.597Z,13.90
2023-04-01T15:23:15.214Z,13.77
2023-04-01T15:28:32.521Z,13.58
2023-04-01T15:33:49.115Z,13.70
2023-04-01T15:38:55.737Z,13.14
2023-04-01T15:43:56.402Z,13.17
2023-04-01T15:49:11.014Z,13.11
2023-04-01T15:54:34.320Z,13.15
2023-04-01T15:59:52.475Z,13.06
2023-04-01T16:05:00.848Z,12.88
2023-04-01T16:10:18.478Z,12.62
2023-04-01T16:15:30.443Z,12.44
2023-04-01T16:20:46.404Z,12.51
2023-04-01T16:25:55.559Z,12.40
2023-04-01T16:31:00.896Z,12.37
2023-04-01T16:36:11.671Z,12.36
2023-04-01T16:41:21.527Z,12.33
2023-04-01T16:46:37.068Z,12.26
2023-04-01T16:51:46.452Z,12.20
2023-04-01T16:56:53.547Z,12.14
2023-04-01T17:01:58.814Z,12.00
2023-04-01T17:07:08.347Z,11.78
2023-04-01T17:12:22.026Z,11.62
2023-04-01T17:17:34.722Z,11.44
2023-04-01T17:22:42.796Z,11.36
2023-04-01T17:27:54.175Z,11.25
2023-04-01T17:33:25.367Z,11.02
2023-04-01T17:38:42.911Z,10.73
2023-04-01T17:43:52.355Z,10.83
2023-04-01T17:48:59.437Z,10.84
2023-04-01T17:54:15.049Z,10.83
2023-04-01T17:59:26.435Z,10.85
2023-04-01T18:04:39.388Z,10.74
2023-04-01T18:09:50.566Z,10.73
2023-04-01T18:15:12.947Z,10.74
2023-04-01T18:20:34.501Z,10.72
2023-04-01T18:25:39.140Z,10.66
2023-04-01T18:30:42.803Z,10.69
2023-04-01T18:35:52.646Z,10.78
2023-04-01T18:41:03.322Z,10.74
2023-04-01T18:46:18.738Z,10.70
2023-04-01T18:51:26.027Z,10.61
2023-04-01T18:56:33.513Z,10.52
2023-04-01T19:01:44.254Z,10.47
2023-04-01T19:06:48.656Z,10.46
2023-04-01T19:12:12.030Z,10.46
2023-04-01T19:17:24.474Z,10.44
2023-04-01T19:22:42.692Z,10.41
2023-04-01T19:27:49.778Z,10.41
2023-04-01T19:33:00.954Z,10.33
2023-04-01T19:38:07.452Z,10.27
2023-04-01T19:43:21.093Z,10.15
2023-04-01T19:48:42.077Z,10.18
2023-04-01T19:53:53.745Z,10.15
2023-04-01T19:58:58.583Z,10.17
2023-04-01T20:04:06.867Z,10.20
2023-04-01T20:09:29.072Z,10.25
2023-04-01T20:14:38.444Z,10.23
2023-04-01T20:19:46.176Z,10.26
2023-04-01T20:24:49.188Z,10.28
2023-04-01T20:30:06.466Z,10.31
2023-04-01T20:35:38.742Z,10.32
2023-04-01T20:40:46.329Z,10.33
2023-04-01T20:45:58.394Z,10.32
2023-04-01T20:51:08.409Z,10.29
2023-04-01T20:56:19.564Z,10.24
2023-04-01T21:01:34.621Z,10.25
2023-04-01T21:06:54.917Z,10.22
2023-04-01T21:12:06.141Z,10.18
2023-04-01T21:17:15.692Z,10.09
2023-04-01T21:22:39.432Z,9.84
2023-04-01T21:28:10.943Z,9.62
2023-04-01T21:33:39.810Z,9.57
2023-04-01T21:38:59.851Z,9.65
2023-04-01T21:44:32.315Z,9.47
2023-04-01T21:50:00.818Z,9.27
2023-04-01T21:55:32.280Z,9.19
2023-04-01T22:00:41.229Z,9.14
2023-04-01T22:05:50.464Z,9.09
2023-04-01T22:11:00.327Z,8.98
2023-04-01T22:16:18.680Z,8.88
2023-04-01T22:21:30.673Z,8.76
2023-04-01T22:26:41.200Z,8.68
2023-04-01T22:31:49.754Z,8.70
2023-04-01T22:37:01.027Z,8.66
2023-04-01T22:42:16.255Z,8.55
2023-04-01T22:47:29.524Z,8.58
2023-04-01T22:52:38.201Z,8.57
2023-04-01T22:57:49.138Z,8.55
2023-04-01T23:03:09.297Z,8.40
2023-04-01T23:08:49.179Z,8.37
2023-04-01T23:13:55.866Z,8.29
2023-04-01T23:19:04.197Z,8.27
2023-04-01T23:24:18.158Z,8.13
2023-04-01T23:29:22.702Z,8.12
2023-04-01T23:34:31.033Z,8.07
2023-04-01T23:39:37.166Z,7.97
2023-04-01T23:44:40.100Z,7.90
2023-04-01T23:49:49.461Z,7.84
2023-04-01T23:54:56.626Z,7.76
